sensor_id;sensor_type;location;lat;lon;timestamp;temperature;humidity
48988;DHT22;34799;51.440;-2.534;2024-02-26T00:00:17;6.10;99.90
48988;DHT22;34799;51.440;-2.534;2024-02-26T00:02:57;6.00;99.90
48988;DHT22;34799;51.440;-2.534;2024-02-26T00:11:35;5.90;99.90
48988;DHT22;34799;51.440;-2.534;2024-02-26T00:14:43;5.90;99.90
48988;DHT22;34799;51.440;-2.534;2024-02-26T00:17:21;5.90;99.90
48988;DHT22;34799;51.440;-2.534;2024-02-26T00:19:56;8.60;99.90
48988;DHT22;34799;51.440;-2.534;2024-02-26T00:23:25;5.70;99.90
48988;DHT22;34799;51.440;-2.534;2024-02-26T00:34:02;6.90;99.90
48988;DHT22;34799;51.440;-2.534;2024-02-26T00:36:38;5.70;99.90
48988;DHT22;34799;51.440;-2.534;2024-02-26T00:39:14;5.70;99.90
48988;DHT22;34799;51.440;-2.534;2024-02-26T00:41:43;5.70;99.90
48988;DHT22;34799;51.440;-2.534;2024-02-26T00:46:51;5.70;99.90
48988;DHT22;34799;51.440;-2.534;2024-02-26T00:52:03;5.70;99.90
48988;DHT22;34799;51.440;-2.534;2024-02-26T00:59:53;5.70;99.90
48988;DHT22;34799;51.440;-2.534;2024-02-26T01:04:55;5.70;99.90
48988;DHT22;34799;51.440;-2.534;2024-02-26T01:07:28;7.00;99.90
48988;DHT22;34799;51.440;-2.534;2024-02-26T01:09:59;5.70;99.90
48988;DHT22;34799;51.440;-2.534;2024-02-26T01:15:38;5.60;99.90
48988;DHT22;34799;51.440;-2.534;2024-02-26T01:18:26;5.60;99.90
48988;DHT22;34799;51.440;-2.534;2024-02-26T01:20:58;5.70;99.90
48988;DHT22;34799;51.440;-2.534;2024-02-26T01:23:43;5.60;99.90
48988;DHT22;34799;51.440;-2.534;2024-02-26T01:28:43;5.70;99.90
48988;DHT22;34799;51.440;-2.534;2024-02-26T01:33:52;5.70;99.90
48988;DHT22;34799;51.440;-2.534;2024-02-26T01:44:02;5.80;99.90
48988;DHT22;34799;51.440;-2.534;2024-02-26T01:46:34;5.70;99.90
48988;DHT22;34799;51.440;-2.534;2024-02-26T01:49:18;9.10;99.90
48988;DHT22;34799;51.440;-2.534;2024-02-26T01:52:21;5.50;99.90
48988;DHT22;34799;51.440;-2.534;2024-02-26T01:55:32;5.60;99.90
48988;DHT22;34799;51.440;-2.534;2024-02-26T01:58:09;9.00;99.90
48988;DHT22;34799;51.440;-2.534;2024-02-26T02:03:15;5.50;99.90
48988;DHT22;34799;51.440;-2.534;2024-02-26T02:06:34;5.50;99.90
48988;DHT22;34799;51.440;-2.534;2024-02-26T02:14:22;3.70;99.90
48988;DHT22;34799;51.440;-2.534;2024-02-26T02:22:27;5.50;99.90
48988;DHT22;34799;51.440;-2.534;2024-02-26T02:28:13;5.50;99.90
48988;DHT22;34799;51.440;-2.534;2024-02-26T02:33:26;5.50;99.90
48988;DHT22;34799;51.440;-2.534;2024-02-26T02:36:10;5.50;99.90
48988;DHT22;34799;51.440;-2.534;2024-02-26T02:39:29;7.20;99.90
48988;DHT22;34799;51.440;-2.534;2024-02-26T02:42:18;8.20;99.90
48988;DHT22;34799;51.440;-2.534;2024-02-26T02:45:39;5.50;99.90
48988;DHT22;34799;51.440;-2.534;2024-02-26T02:48:22;5.40;99.90
48988;DHT22;34799;51.440;-2.534;2024-02-26T02:50:56;5.50;99.90
48988;DHT22;34799;51.440;-2.534;2024-02-26T03:03:51;5.40;99.90
48988;DHT22;34799;51.440;-2.534;2024-02-26T03:06:28;5.40;99.90
48988;DHT22;34799;51.440;-2.534;2024-02-26T03:14:27;5.40;99.90
48988;DHT22;34799;51.440;-2.534;2024-02-26T03:17:21;3.20;99.90
48988;DHT22;34799;51.440;-2.534;2024-02-26T03:20:09;8.40;99.90
48988;DHT22;34799;51.440;-2.534;2024-02-26T03:22:49;5.30;99.90
48988;DHT22;34799;51.440;-2.534;2024-02-26T03:25:30;5.30;99.90
48988;DHT22;34799;51.440;-2.534;2024-02-26T03:28:06;5.30;99.90
48988;DHT22;34799;51.440;-2.534;2024-02-26T03:30:56;5.30;99.90
48988;DHT22;34799;51.440;-2.534;2024-02-26T03:36:03;5.30;99.90
48988;DHT22;34799;51.440;-2.534;2024-02-26T03:38:39;5.30;99.90
48988;DHT22;34799;51.440;-2.534;2024-02-26T03:41:16;5.30;99.90
48988;DHT22;34799;51.440;-2.534;2024-02-26T03:44:05;5.30;99.90
48988;DHT22;34799;51.440;-2.534;2024-02-26T03:47:04;5.60;99.90
48988;DHT22;34799;51.440;-2.534;2024-02-26T03:59:50;5.20;99.90
48988;DHT22;34799;51.440;-2.534;2024-02-26T04:02:43;5.20;99.90
48988;DHT22;34799;51.440;-2.534;2024-02-26T04:15:48;6.00;99.90
48988;DHT22;34799;51.440;-2.534;2024-02-26T04:18:20;5.10;99.90
48988;DHT22;34799;51.440;-2.534;2024-02-26T04:20:53;5.10;99.90
48988;DHT22;34799;51.440;-2.534;2024-02-26T04:26:05;5.10;99.90
48988;DHT22;34799;51.440;-2.534;2024-02-26T04:31:28;5.10;99.90
48988;DHT22;34799;51.440;-2.534;2024-02-26T04:36:58;5.10;99.90
48988;DHT22;34799;51.440;-2.534;2024-02-26T04:39:37;5.10;99.90
48988;DHT22;34799;51.440;-2.534;2024-02-26T04:42:18;5.10;99.90
48988;DHT22;34799;51.440;-2.534;2024-02-26T04:45:00;5.10;99.90
48988;DHT22;34799;51.440;-2.534;2024-02-26T04:50:16;5.10;99.90
48988;DHT22;34799;51.440;-2.534;2024-02-26T04:53:01;5.10;99.90
48988;DHT22;34799;51.440;-2.534;2024-02-26T04:55:46;5.10;99.90
48988;DHT22;34799;51.440;-2.534;2024-02-26T05:00:53;5.10;99.90
48988;DHT22;34799;51.440;-2.534;2024-02-26T05:14:24;5.20;99.90
48988;DHT22;34799;51.440;-2.534;2024-02-26T05:19:36;5.20;99.90
48988;DHT22;34799;51.440;-2.534;2024-02-26T05:25:17;5.20;99.90
48988;DHT22;34799;51.440;-2.534;2024-02-26T05:30:21;5.20;99.90
48988;DHT22;34799;51.440;-2.534;2024-02-26T05:32:52;5.20;99.90
48988;DHT22;34799;51.440;-2.534;2024-02-26T05:38:11;5.20;99.90
48988;DHT22;34799;51.440;-2.534;2024-02-26T05:40:51;5.20;99.90
48988;DHT22;34799;51.440;-2.534;2024-02-26T05:53:38;5.20;99.90
48988;DHT22;34799;51.440;-2.534;2024-02-26T05:58:46;5.20;99.90
48988;DHT22;34799;51.440;-2.534;2024-02-26T06:01:20;5.10;99.90
48988;DHT22;34799;51.440;-2.534;2024-02-26T06:03:53;5.20;99.90
48988;DHT22;34799;51.440;-2.534;2024-02-26T06:06:52;5.20;99.90
48988;DHT22;34799;51.440;-2.534;2024-02-26T06:09:41;5.10;99.90
48988;DHT22;34799;51.440;-2.534;2024-02-26T06:12:20;5.20;99.90
48988;DHT22;34799;51.440;-2.534;2024-02-26T06:15:04;5.20;99.90
48988;DHT22;34799;51.440;-2.534;2024-02-26T06:17:49;5.10;99.90
48988;DHT22;34799;51.440;-2.534;2024-02-26T06:20:29;5.10;99.90
48988;DHT22;34799;51.440;-2.534;2024-02-26T06:28:40;3.90;99.90
48988;DHT22;34799;51.440;-2.534;2024-02-26T06:33:42;2.10;99.90
48988;DHT22;34799;51.440;-2.534;2024-02-26T06:36:16;5.20;99.90
48988;DHT22;34799;51.440;-2.534;2024-02-26T06:44:38;5.00;99.90
48988;DHT22;34799;51.440;-2.534;2024-02-26T06:47:13;5.90;99.90
48988;DHT22;34799;51.440;-2.534;2024-02-26T06:50:08;5.20;99.90
48988;DHT22;34799;51.440;-2.534;2024-02-26T06:55:42;5.20;99.90
48988;DHT22;34799;51.440;-2.534;2024-02-26T07:01:13;5.20;99.90
48988;DHT22;34799;51.440;-2.534;2024-02-26T07:04:08;5.20;99.90
48988;DHT22;34799;51.440;-2.534;2024-02-26T07:09:17;5.30;99.90
48988;DHT22;34799;51.440;-2.534;2024-02-26T07:11:59;5.20;99.90
48988;DHT22;34799;51.440;-2.534;2024-02-26T07:17:10;5.20;99.90
48988;DHT22;34799;51.440;-2.534;2024-02-26T07:19:53;5.20;99.90
48988;DHT22;34799;51.440;-2.534;2024-02-26T07:22:24;5.30;99.90
48988;DHT22;34799;51.440;-2.534;2024-02-26T07:30:42;5.30;99.90
48988;DHT22;34799;51.440;-2.534;2024-02-26T07:33:38;6.90;99.90
48988;DHT22;34799;51.440;-2.534;2024-02-26T07:39:35;5.30;99.90
48988;DHT22;34799;51.440;-2.534;2024-02-26T07:42:52;5.30;99.90
48988;DHT22;34799;51.440;-2.534;2024-02-26T07:45:32;5.30;99.90
48988;DHT22;34799;51.440;-2.534;2024-02-26T07:48:26;2.90;99.90
48988;DHT22;34799;51.440;-2.534;2024-02-26T07:53:41;5.30;99.90
48988;DHT22;34799;51.440;-2.534;2024-02-26T07:56:25;5.30;99.90
48988;DHT22;34799;51.440;-2.534;2024-02-26T07:59:08;5.30;99.90
48988;DHT22;34799;51.440;-2.534;2024-02-26T08:01:51;5.20;99.90
48988;DHT22;34799;51.440;-2.534;2024-02-26T08:04:31;5.30;99.90
48988;DHT22;34799;51.440;-2.534;2024-02-26T08:11:02;5.20;99.90
48988;DHT22;34799;51.440;-2.534;2024-02-26T08:14:23;5.20;99.90
48988;DHT22;34799;51.440;-2.534;2024-02-26T08:17:43;5.20;99.90
48988;DHT22;34799;51.440;-2.534;2024-02-26T08:20:42;5.20;99.90
48988;DHT22;34799;51.440;-2.534;2024-02-26T08:23:36;5.20;99.90
48988;DHT22;34799;51.440;-2.534;2024-02-26T08:26:07;5.20;99.90
48988;DHT22;34799;51.440;-2.534;2024-02-26T08:31:30;5.20;99.90
48988;DHT22;34799;51.440;-2.534;2024-02-26T08:34:12;5.30;99.90
48988;DHT22;34799;51.440;-2.534;2024-02-26T08:36:51;5.30;99.90
48988;DHT22;34799;51.440;-2.534;2024-02-26T08:47:09;5.40;99.90
48988;DHT22;34799;51.440;-2.534;2024-02-26T08:50:01;5.20;99.90
48988;DHT22;34799;51.440;-2.534;2024-02-26T08:52:57;5.40;99.90
48988;DHT22;34799;51.440;-2.534;2024-02-26T08:56:10;5.40;99.90
48988;DHT22;34799;51.440;-2.534;2024-02-26T09:18:27;5.90;99.90
48988;DHT22;34799;51.440;-2.534;2024-02-26T09:21:06;5.80;99.90
48988;DHT22;34799;51.440;-2.534;2024-02-26T09:31:31;6.00;99.90
48988;DHT22;34799;51.440;-2.534;2024-02-26T09:34:17;5.70;99.90
48988;DHT22;34799;51.440;-2.534;2024-02-26T09:40:28;5.80;99.90
48988;DHT22;34799;51.440;-2.534;2024-02-26T09:43:13;5.90;99.90
48988;DHT22;34799;51.440;-2.534;2024-02-26T09:59:38;6.30;99.90
48988;DHT22;34799;51.440;-2.534;2024-02-26T10:02:15;6.20;99.90
48988;DHT22;34799;51.440;-2.534;2024-02-26T10:04:43;6.20;99.90
48988;DHT22;34799;51.440;-2.534;2024-02-26T10:07:13;6.30;99.90
48988;DHT22;34799;51.440;-2.534;2024-02-26T10:09:40;6.30;99.90
48988;DHT22;34799;51.440;-2.534;2024-02-26T10:12:10;6.40;99.90
48988;DHT22;34799;51.440;-2.534;2024-02-26T10:14:39;6.40;99.90
48988;DHT22;34799;51.440;-2.534;2024-02-26T10:17:07;6.50;99.90
48988;DHT22;34799;51.440;-2.534;2024-02-26T10:22:04;7.40;99.90
48988;DHT22;34799;51.440;-2.534;2024-02-26T10:24:32;6.50;99.90
48988;DHT22;34799;51.440;-2.534;2024-02-26T10:27:02;6.30;99.90
48988;DHT22;34799;51.440;-2.534;2024-02-26T10:29:29;6.90;99.90
48988;DHT22;34799;51.440;-2.534;2024-02-26T10:31:56;6.70;99.90
48988;DHT22;34799;51.440;-2.534;2024-02-26T10:34:24;6.80;99.90
48988;DHT22;34799;51.440;-2.534;2024-02-26T10:36:54;7.00;99.90
48988;DHT22;34799;51.440;-2.534;2024-02-26T10:39:21;6.80;99.90
48988;DHT22;34799;51.440;-2.534;2024-02-26T10:44:16;6.60;99.90
48988;DHT22;34799;51.440;-2.534;2024-02-26T10:46:47;6.70;99.90
48988;DHT22;34799;51.440;-2.534;2024-02-26T10:49:16;6.90;99.90
48988;DHT22;34799;51.440;-2.534;2024-02-26T10:51:50;6.50;99.90
48988;DHT22;34799;51.440;-2.534;2024-02-26T10:54:21;6.50;99.90
48988;DHT22;34799;51.440;-2.534;2024-02-26T10:56:50;6.50;99.90
48988;DHT22;34799;51.440;-2.534;2024-02-26T10:59:18;6.50;99.90
48988;DHT22;34799;51.440;-2.534;2024-02-26T11:01:50;6.50;99.90
48988;DHT22;34799;51.440;-2.534;2024-02-26T11:04:20;6.60;99.90
48988;DHT22;34799;51.440;-2.534;2024-02-26T11:06:49;6.40;99.90
48988;DHT22;34799;51.440;-2.534;2024-02-26T11:09:19;6.80;99.90
48988;DHT22;34799;51.440;-2.534;2024-02-26T11:11:48;6.50;99.90
48988;DHT22;34799;51.440;-2.534;2024-02-26T11:14:17;6.40;99.90
48988;DHT22;34799;51.440;-2.534;2024-02-26T11:16:44;6.70;99.90
48988;DHT22;34799;51.440;-2.534;2024-02-26T11:19:12;6.70;99.90
48988;DHT22;34799;51.440;-2.534;2024-02-26T11:21:41;7.00;99.90
48988;DHT22;34799;51.440;-2.534;2024-02-26T11:24:13;7.00;99.90
48988;DHT22;34799;51.440;-2.534;2024-02-26T11:26:58;7.10;99.90
48988;DHT22;34799;51.440;-2.534;2024-02-26T11:29:29;6.90;99.90
48988;DHT22;34799;51.440;-2.534;2024-02-26T11:32:00;7.00;99.90
48988;DHT22;34799;51.440;-2.534;2024-02-26T11:34:27;7.00;99.90
48988;DHT22;34799;51.440;-2.534;2024-02-26T11:36:56;6.70;99.90
48988;DHT22;34799;51.440;-2.534;2024-02-26T11:39:24;7.40;99.90
48988;DHT22;34799;51.440;-2.534;2024-02-26T11:41:53;7.00;99.90
48988;DHT22;34799;51.440;-2.534;2024-02-26T11:44:40;6.90;99.90
48988;DHT22;34799;51.440;-2.534;2024-02-26T11:47:17;7.00;99.90
48988;DHT22;34799;51.440;-2.534;2024-02-26T11:52:14;6.90;99.90
48988;DHT22;34799;51.440;-2.534;2024-02-26T11:54:53;7.20;99.90
48988;DHT22;34799;51.440;-2.534;2024-02-26T11:57:27;7.10;99.90
48988;DHT22;34799;51.440;-2.534;2024-02-26T12:00:12;7.20;99.90
48988;DHT22;34799;51.440;-2.534;2024-02-26T12:05:16;7.10;99.90
48988;DHT22;34799;51.440;-2.534;2024-02-26T12:07:54;7.30;99.90
48988;DHT22;34799;51.440;-2.534;2024-02-26T12:10:32;7.20;99.90
48988;DHT22;34799;51.440;-2.534;2024-02-26T12:13:07;7.30;99.90
48988;DHT22;34799;51.440;-2.534;2024-02-26T12:15:42;6.20;99.90
48988;DHT22;34799;51.440;-2.534;2024-02-26T12:18:17;7.40;99.90
48988;DHT22;34799;51.440;-2.534;2024-02-26T12:23:16;7.60;99.90
48988;DHT22;34799;51.440;-2.534;2024-02-26T12:25:44;7.60;99.90
48988;DHT22;34799;51.440;-2.534;2024-02-26T12:28:12;7.50;99.90
48988;DHT22;34799;51.440;-2.534;2024-02-26T12:30:39;7.70;99.90
48988;DHT22;34799;51.440;-2.534;2024-02-26T12:33:07;7.70;99.90
48988;DHT22;34799;51.440;-2.534;2024-02-26T12:35:36;7.90;99.90
48988;DHT22;34799;51.440;-2.534;2024-02-26T12:38:04;7.50;99.90
48988;DHT22;34799;51.440;-2.534;2024-02-26T12:40:31;7.70;99.90
48988;DHT22;34799;51.440;-2.534;2024-02-26T12:42:59;7.60;99.90
48988;DHT22;34799;51.440;-2.534;2024-02-26T12:45:26;8.00;99.90
48988;DHT22;34799;51.440;-2.534;2024-02-26T12:47:55;7.70;99.90
48988;DHT22;34799;51.440;-2.534;2024-02-26T12:50:24;7.80;99.90
48988;DHT22;34799;51.440;-2.534;2024-02-26T12:52:52;7.60;99.90
48988;DHT22;34799;51.440;-2.534;2024-02-26T12:55:20;7.90;99.90
48988;DHT22;34799;51.440;-2.534;2024-02-26T12:57:48;7.90;99.90
48988;DHT22;34799;51.440;-2.534;2024-02-26T13:00:20;7.80;99.90
48988;DHT22;34799;51.440;-2.534;2024-02-26T13:02:49;7.80;99.90
48988;DHT22;34799;51.440;-2.534;2024-02-26T13:05:19;7.70;99.90
48988;DHT22;34799;51.440;-2.534;2024-02-26T13:07:47;7.80;99.90
48988;DHT22;34799;51.440;-2.534;2024-02-26T13:10:14;8.10;99.90
48988;DHT22;34799;51.440;-2.534;2024-02-26T13:12:46;8.20;99.90
48988;DHT22;34799;51.440;-2.534;2024-02-26T13:15:17;8.80;99.90
48988;DHT22;34799;51.440;-2.534;2024-02-26T13:17:45;8.20;99.90
48988;DHT22;34799;51.440;-2.534;2024-02-26T13:20:13;6.30;99.90
48988;DHT22;34799;51.440;-2.534;2024-02-26T13:22:41;8.00;99.90
48988;DHT22;34799;51.440;-2.534;2024-02-26T13:25:09;8.00;99.90
48988;DHT22;34799;51.440;-2.534;2024-02-26T13:30:11;7.50;99.90
48988;DHT22;34799;51.440;-2.534;2024-02-26T13:32:40;7.80;99.90
48988;DHT22;34799;51.440;-2.534;2024-02-26T13:35:10;7.90;99.90
48988;DHT22;34799;51.440;-2.534;2024-02-26T13:37:38;7.90;99.90
48988;DHT22;34799;51.440;-2.534;2024-02-26T13:40:08;8.30;99.90
48988;DHT22;34799;51.440;-2.534;2024-02-26T13:42:38;8.30;99.90
48988;DHT22;34799;51.440;-2.534;2024-02-26T13:45:06;8.20;99.90
48988;DHT22;34799;51.440;-2.534;2024-02-26T13:47:34;8.50;99.90
48988;DHT22;34799;51.440;-2.534;2024-02-26T13:50:02;8.60;99.90
48988;DHT22;34799;51.440;-2.534;2024-02-26T13:57:29;8.50;99.90
48988;DHT22;34799;51.440;-2.534;2024-02-26T13:59:56;8.50;99.90
48988;DHT22;34799;51.440;-2.534;2024-02-26T14:02:24;8.70;99.90
48988;DHT22;34799;51.440;-2.534;2024-02-26T14:04:51;8.80;99.90
48988;DHT22;34799;51.440;-2.534;2024-02-26T14:07:18;8.70;99.90
48988;DHT22;34799;51.440;-2.534;2024-02-26T14:09:47;8.80;99.90
48988;DHT22;34799;51.440;-2.534;2024-02-26T14:12:15;9.10;99.90
48988;DHT22;34799;51.440;-2.534;2024-02-26T14:14:44;9.00;99.90
48988;DHT22;34799;51.440;-2.534;2024-02-26T14:17:12;9.10;99.90
48988;DHT22;34799;51.440;-2.534;2024-02-26T14:19:42;9.30;99.90
48988;DHT22;34799;51.440;-2.534;2024-02-26T14:22:12;8.80;99.90
48988;DHT22;34799;51.440;-2.534;2024-02-26T14:24:39;8.80;99.90
48988;DHT22;34799;51.440;-2.534;2024-02-26T14:27:10;8.80;99.90
48988;DHT22;34799;51.440;-2.534;2024-02-26T14:29:42;8.40;99.90
48988;DHT22;34799;51.440;-2.534;2024-02-26T14:32:10;8.60;99.90
48988;DHT22;34799;51.440;-2.534;2024-02-26T14:34:38;8.70;99.90
48988;DHT22;34799;51.440;-2.534;2024-02-26T14:37:05;8.60;99.90
48988;DHT22;34799;51.440;-2.534;2024-02-26T14:39:33;8.70;99.90
48988;DHT22;34799;51.440;-2.534;2024-02-26T14:42:00;8.90;99.90
48988;DHT22;34799;51.440;-2.534;2024-02-26T14:46:58;7.70;99.90
48988;DHT22;34799;51.440;-2.534;2024-02-26T14:49:25;9.20;99.90
48988;DHT22;34799;51.440;-2.534;2024-02-26T14:51:52;9.00;99.90
48988;DHT22;34799;51.440;-2.534;2024-02-26T14:54:20;8.90;99.90
48988;DHT22;34799;51.440;-2.534;2024-02-26T14:56:48;9.10;99.90
48988;DHT22;34799;51.440;-2.534;2024-02-26T14:59:16;8.70;99.90
48988;DHT22;34799;51.440;-2.534;2024-02-26T15:01:43;8.10;99.90
48988;DHT22;34799;51.440;-2.534;2024-02-26T15:04:12;8.60;99.90
48988;DHT22;34799;51.440;-2.534;2024-02-26T15:06:40;8.30;99.90
48988;DHT22;34799;51.440;-2.534;2024-02-26T15:09:08;8.40;99.90
48988;DHT22;34799;51.440;-2.534;2024-02-26T15:11:39;8.90;99.90
48988;DHT22;34799;51.440;-2.534;2024-02-26T15:14:08;8.60;99.90
48988;DHT22;34799;51.440;-2.534;2024-02-26T15:16:35;8.70;99.90
48988;DHT22;34799;51.440;-2.534;2024-02-26T15:19:03;8.10;99.90
48988;DHT22;34799;51.440;-2.534;2024-02-26T15:21:30;8.60;99.90
48988;DHT22;34799;51.440;-2.534;2024-02-26T15:23:58;8.40;99.90
48988;DHT22;34799;51.440;-2.534;2024-02-26T15:26:27;9.10;99.90
48988;DHT22;34799;51.440;-2.534;2024-02-26T15:28:54;8.40;99.90
48988;DHT22;34799;51.440;-2.534;2024-02-26T15:31:22;8.10;99.90
48988;DHT22;34799;51.440;-2.534;2024-02-26T15:33:49;8.30;99.90
48988;DHT22;34799;51.440;-2.534;2024-02-26T15:36:16;8.10;99.90
48988;DHT22;34799;51.440;-2.534;2024-02-26T15:38:43;8.10;99.90
48988;DHT22;34799;51.440;-2.534;2024-02-26T15:41:15;8.30;99.90
48988;DHT22;34799;51.440;-2.534;2024-02-26T15:43:42;8.60;99.90
48988;DHT22;34799;51.440;-2.534;2024-02-26T15:46:10;8.30;99.90
48988;DHT22;34799;51.440;-2.534;2024-02-26T15:51:05;8.40;99.90
48988;DHT22;34799;51.440;-2.534;2024-02-26T15:53:33;8.60;99.90
48988;DHT22;34799;51.440;-2.534;2024-02-26T15:56:00;8.60;99.90
48988;DHT22;34799;51.440;-2.534;2024-02-26T15:58:28;8.80;99.90
48988;DHT22;34799;51.440;-2.534;2024-02-26T16:00:55;8.60;99.90
48988;DHT22;34799;51.440;-2.534;2024-02-26T16:03:25;8.50;99.90
48988;DHT22;34799;51.440;-2.534;2024-02-26T16:05:52;8.40;99.90
48988;DHT22;34799;51.440;-2.534;2024-02-26T16:08:21;8.20;99.90
48988;DHT22;34799;51.440;-2.534;2024-02-26T16:10:49;8.20;99.90
48988;DHT22;34799;51.440;-2.534;2024-02-26T16:13:17;8.30;99.90
48988;DHT22;34799;51.440;-2.534;2024-02-26T16:15:51;8.20;99.90
48988;DHT22;34799;51.440;-2.534;2024-02-26T16:18:20;8.10;99.90
48988;DHT22;34799;51.440;-2.534;2024-02-26T16:20:48;8.20;99.90
48988;DHT22;34799;51.440;-2.534;2024-02-26T16:23:15;8.20;99.90
48988;DHT22;34799;51.440;-2.534;2024-02-26T16:25:44;8.40;99.90
48988;DHT22;34799;51.440;-2.534;2024-02-26T16:28:11;8.10;99.90
48988;DHT22;34799;51.440;-2.534;2024-02-26T16:30:39;8.20;99.90
48988;DHT22;34799;51.440;-2.534;2024-02-26T16:33:07;8.10;99.90
48988;DHT22;34799;51.440;-2.534;2024-02-26T16:38:02;8.20;99.90
48988;DHT22;34799;51.440;-2.534;2024-02-26T16:40:29;8.30;99.90
48988;DHT22;34799;51.440;-2.534;2024-02-26T19:59:04;6.40;99.90
